Time;durP1;ratioP1;P1;durP2;ratioP2;P2;SDS_P1;SDS_P2;PMS_P1;PMS_P2;Temp;Humidity;BMP_temperature;BMP_pressure;BME280_temperature;BME280_humidity;BME280_pressure;Samples;Min_cycle;Max_cycle;Signal;HPM_P1;HPM_P2
2023/11/03 00:02:20;;;;;;;0.60;0.30;;;;;;;16.41;45.75;97751.38;5034077;28;20457;-62
2023/11/03 00:04:51;;;;;;;1.65;0.50;;;;;;;16.45;46.50;97768.72;5035543;28;20485;-61
2023/11/03 00:07:17;;;;;;;2.50;0.30;;;;;;;16.49;45.31;97775.28;5034115;28;20037;-61
2023/11/03 00:09:44;;;;;;;2.03;0.60;;;;;;;16.53;46.26;97792.66;5033964;28;20045;-61
2023/11/03 00:12:09;;;;;;;2.17;0.43;;;;;;;16.51;46.69;97789.38;5034070;28;20084;-61
2023/11/03 00:14:34;;;;;;;1.63;0.30;;;;;;;16.48;46.46;97787.16;5033786;28;20382;-61
2023/11/03 00:17:01;;;;;;;1.33;0.20;;;;;;;16.46;45.88;97781.19;5033852;28;20119;-61
2023/11/03 00:19:26;;;;;;;0.77;0.20;;;;;;;16.46;46.91;97788.44;5033595;28;20041;-61
2023/11/03 00:21:52;;;;;;;0.35;0.10;;;;;;;16.44;45.26;97783.31;5034966;28;20034;-61
2023/11/03 00:24:18;;;;;;;2.10;0.47;;;;;;;16.44;45.07;97783.31;5034949;28;20091;-60
2023/11/03 00:26:44;;;;;;;1.15;0.22;;;;;;;16.41;45.20;97794.59;5034027;28;20064;-60
2023/11/03 00:29:10;;;;;;;1.13;0.28;;;;;;;16.39;45.05;97791.28;5034001;28;20109;-60
2023/11/03 00:31:37;;;;;;;2.17;0.40;;;;;;;16.37;46.41;97784.50;5033945;28;20075;-61
2023/11/03 00:34:05;;;;;;;3.30;0.47;;;;;;;16.42;45.84;97800.78;5034110;28;20037;-61
2023/11/03 00:36:31;;;;;;;0.55;0.47;;;;;;;16.38;46.80;97805.88;5033320;28;20109;-61
2023/11/03 00:38:58;;;;;;;0.70;0.35;;;;;;;16.38;45.77;97803.19;5034492;28;20030;-61
2023/11/03 00:41:23;;;;;;;1.38;1.17;;;;;;;16.29;45.55;97791.09;5034372;28;20036;-62
2023/11/03 00:43:50;;;;;;;1.65;0.50;;;;;;;16.35;46.79;97795.53;5033321;28;20116;-63
2023/11/03 00:46:16;;;;;;;2.67;0.50;;;;;;;16.37;46.28;97798.00;5033391;28;20038;-62
2023/11/03 00:48:42;;;;;;;2.78;0.77;;;;;;;16.40;46.11;97801.03;5016706;28;20405;-62
2023/11/03 00:51:08;;;;;;;1.25;0.32;;;;;;;16.42;45.95;97806.19;5033071;28;20501;-61
2023/11/03 00:53:36;;;;;;;2.63;0.70;;;;;;;16.41;46.57;97810.81;5033283;28;20512;-62
2023/11/03 00:56:04;;;;;;;1.23;0.38;;;;;;;16.44;46.09;97810.31;5016349;28;20497;-61
2023/11/03 00:58:30;;;;;;;3.13;0.40;;;;;;;16.48;45.33;97821.44;5034331;28;20555;-61
2023/11/03 01:00:55;;;;;;;1.13;0.30;;;;;;;16.49;45.68;97804.19;5032979;28;20029;-61
2023/11/03 01:03:21;;;;;;;1.70;0.43;;;;;;;16.44;45.99;97810.31;5016750;28;20045;-62
2023/11/03 01:05:48;;;;;;;2.45;0.38;;;;;;;16.47;45.77;97820.63;5035193;28;20034;-62
2023/11/03 01:08:13;;;;;;;0.75;0.38;;;;;;;16.44;46.13;97821.13;5033774;28;20030;-62
2023/11/03 01:10:40;;;;;;;2.60;0.50;;;;;;;16.47;46.73;97820.63;5034199;28;20026;-61
2023/11/03 01:13:10;;;;;;;1.85;0.63;;;;;;;16.49;46.03;97823.94;5033951;28;20458;-62
2023/11/03 01:15:38;;;;;;;3.33;0.55;;;;;;;16.49;46.46;97818.53;5032631;28;20036;-61
2023/11/03 01:18:05;;;;;;;1.10;0.50;;;;;;;16.47;45.48;97831.44;5015087;28;20038;-62
2023/11/03 01:20:30;;;;;;;5.80;0.93;;;;;;;16.47;46.46;97828.72;5033491;28;20095;-62
2023/11/03 01:22:56;;;;;;;0.93;0.40;;;;;;;16.49;45.90;97831.22;5032184;28;20021;-62
2023/11/03 01:25:22;;;;;;;3.55;0.50;;;;;;;16.48;45.82;97833.09;5032110;28;20057;-61
2023/11/03 01:27:49;;;;;;;1.08;0.20;;;;;;;16.50;45.65;97835.56;5022924;28;20029;-62
2023/11/03 01:30:17;;;;;;;1.48;0.30;;;;;;;16.52;45.08;97822.63;5048394;28;20441;-61
2023/11/03 01:32:43;;;;;;;0.43;0.28;;;;;;;16.53;45.55;97830.50;5033504;28;20477;-62
2023/11/03 01:35:09;;;;;;;0.95;0.47;;;;;;;16.56;46.02;97838.13;5032309;28;20087;-61
2023/11/03 01:37:35;;;;;;;1.27;0.40;;;;;;;16.59;45.79;97856.56;5015849;28;20473;-62
2023/11/03 01:40:07;;;;;;;2.30;0.40;;;;;;;16.62;45.88;97855.28;5032344;28;20096;-62
2023/11/03 01:42:33;;;;;;;1.52;0.20;;;;;;;16.59;45.45;97861.97;5017534;28;20021;-61
2023/11/03 01:44:58;;;;;;;0.80;0.60;;;;;;;16.55;45.39;97850.03;5033427;28;20055;-62
2023/11/03 01:47:24;;;;;;;4.07;0.38;;;;;;;16.54;45.28;97858.34;5033555;28;20051;-62
2023/11/03 01:49:49;;;;;;;0.85;0.28;;;;;;;16.55;45.80;97855.44;5032165;28;20045;-61
2023/11/03 01:52:15;;;;;;;0.77;0.30;;;;;;;16.54;46.14;97878.09;5014692;28;20068;-61
2023/11/03 01:54:42;;;;;;;0.55;0.40;;;;;;;16.54;46.08;97866.47;5033494;28;20120;-61
2023/11/03 01:57:09;;;;;;;0.57;0.57;;;;;;;16.52;44.87;97877.50;5033648;28;20036;-61
2023/11/03 01:59:34;;;;;;;1.95;0.10;;;;;;;16.53;45.92;97879.16;5032446;28;20078;-60
2023/11/03 02:02:00;;;;;;;13.52;0.57;;;;;;;16.51;45.85;97870.44;5031902;28;20424;-61
2023/11/03 02:04:25;;;;;;;1.48;0.30;;;;;;;16.53;46.02;97884.56;5015266;28;20037;-61
2023/11/03 02:06:51;;;;;;;2.38;1.08;;;;;;;16.53;45.98;97879.16;5031501;28;20034;-61
2023/11/03 02:09:16;;;;;;;0.80;0.20;;;;;;;16.53;45.41;97879.16;5032935;28;20091;-61
2023/11/03 02:11:48;;;;;;;0.73;0.30;;;;;;;16.54;45.49;97879.97;5015439;28;20108;-61
2023/11/03 02:14:14;;;;;;;1.25;0.55;;;;;;;16.54;45.83;97886.19;5031942;28;20478;-61
2023/11/03 02:16:39;;;;;;;6.18;0.38;;;;;;;16.52;45.81;97899.13;5015528;28;20029;-61
2023/11/03 02:19:09;;;;;;;1.63;0.80;;;;;;;16.51;45.53;97889.34;5032047;28;20041;-61
2023/11/03 02:21:36;;;;;;;0.82;0.38;;;;;;;16.52;46.03;97885.59;5033002;28;20060;-61
2023/11/03 02:24:01;;;;;;;0.95;0.20;;;;;;;16.54;45.38;97888.91;5015111;28;20088;-61
2023/11/03 02:26:27;;;;;;;1.60;0.30;;;;;;;16.56;45.79;97886.78;5031424;28;20073;-62
2023/11/03 02:28:52;;;;;;;1.10;0.28;;;;;;;16.57;45.77;97899.25;5031672;28;20087;-61
2023/11/03 02:31:18;;;;;;;3.35;0.98;;;;;;;16.58;45.58;97903.56;5032685;28;20030;-61
2023/11/03 02:33:44;;;;;;;2.25;0.45;;;;;;;16.60;45.22;97912.28;5031493;28;20424;-62
2023/11/03 02:36:09;;;;;;;4.38;0.30;;;;;;;16.61;46.07;97924.72;5032642;28;20030;-61
2023/11/03 02:38:35;;;;;;;2.70;0.77;;;;;;;16.60;45.93;97933.91;5031280;28;20374;-61
2023/11/03 02:41:00;;;;;;;4.85;0.50;;;;;;;16.61;46.21;97923.91;5014954;28;20404;-61
2023/11/03 02:43:25;;;;;;;1.85;0.30;;;;;;;16.62;46.06;97925.53;5031438;28;20040;-61
2023/11/03 02:45:50;;;;;;;2.10;0.30;;;;;;;16.62;45.05;97915.56;5014890;28;20033;-61
2023/11/03 02:48:17;;;;;;;3.53;0.73;;;;;;;16.63;45.51;97922.63;5032665;28;20152;-61
2023/11/03 02:50:42;;;;;;;4.70;0.50;;;;;;;16.62;45.87;97918.25;5032906;28;20026;-61
2023/11/03 02:53:07;;;;;;;2.00;0.40;;;;;;;16.63;44.99;97922.63;5031403;28;20037;-61
2023/11/03 02:55:34;;;;;;;2.25;0.50;;;;;;;16.65;46.12;97915.06;5031235;28;20030;-61
2023/11/03 02:58:02;;;;;;;0.93;0.25;;;;;;;16.65;45.91;97920.47;5030115;28;20041;-61
2023/11/03 03:00:28;;;;;;;0.75;0.20;;;;;;;16.68;45.09;97917.31;5031333;28;20110;-61
2023/11/03 03:02:54;;;;;;;2.22;0.43;;;;;;;16.67;45.82;97915.66;5032175;28;20042;-61
2023/11/03 03:05:19;;;;;;;0.93;0.57;;;;;;;16.68;45.62;97920.00;5035252;28;20026;-61
2023/11/03 03:07:46;;;;;;;1.95;0.43;;;;;;;16.69;46.22;97926.25;5035208;28;20099;-62
2023/11/03 03:10:11;;;;;;;2.28;0.30;;;;;;;16.68;44.78;97925.41;5036438;28;20030;-61
2023/11/03 03:12:37;;;;;;;1.00;0.50;;;;;;;16.67;45.31;97918.34;5034986;28;20044;-61
2023/11/03 03:15:03;;;;;;;1.80;0.30;;;;;;;16.65;46.41;97925.88;5034866;28;20048;-61
2023/11/03 03:17:29;;;;;;;2.15;1.00;;;;;;;16.64;45.59;97918.84;5036479;28;20025;-61
2023/11/03 03:19:55;;;;;;;3.70;0.50;;;;;;;16.63;45.91;97928.03;5018320;28;20037;-61
2023/11/03 03:22:20;;;;;;;6.78;0.57;;;;;;;16.63;46.13;97941.53;5034883;28;20044;-61
2023/11/03 03:24:46;;;;;;;5.35;1.17;;;;;;;16.62;46.46;97937.19;5034704;28;20406;-61
2023/11/03 03:27:11;;;;;;;4.20;0.52;;;;;;;16.60;45.87;97925.78;5034508;28;20038;-61
2023/11/03 03:29:38;;;;;;;7.13;1.38;;;;;;;16.60;44.62;97925.78;5034839;28;20087;-61
2023/11/03 03:32:04;;;;;;;4.28;0.70;;;;;;;16.61;46.12;97924.72;5018161;28;20033;-61
2023/11/03 03:34:29;;;;;;;4.15;0.60;;;;;;;16.62;45.06;97931.78;5034627;28;20041;-61
2023/11/03 03:36:55;;;;;;;6.15;0.77;;;;;;;16.63;46.17;97928.03;5018011;28;20033;-61
2023/11/03 03:39:20;;;;;;;5.65;0.57;;;;;;;16.66;45.38;97937.53;5034702;28;20136;-62
2023/11/03 03:41:50;;;;;;;3.22;0.45;;;;;;;16.67;45.27;97933.75;5035620;28;20163;-61
2023/11/03 03:44:16;;;;;;;2.17;0.65;;;;;;;16.68;45.22;97936.22;5036011;28;20029;-61
2023/11/03 03:46:42;;;;;;;4.90;0.88;;;;;;;16.68;45.74;97935.41;5034304;28;20044;-62
2023/11/03 03:49:08;;;;;;;7.90;0.50;;;;;;;16.69;44.96;97932.47;5035611;28;20037;-61
2023/11/03 03:51:35;;;;;;;3.28;0.55;;;;;;;16.72;45.56;97948.19;5035643;28;20034;-61
2023/11/03 03:54:01;;;;;;;4.30;1.33;;;;;;;16.66;45.49;97943.75;5034049;28;20034;-61
2023/11/03 03:56:27;;;;;;;5.25;0.90;;;;;;;16.66;45.75;97951.03;5035501;28;20044;-60
2023/11/03 03:58:53;;;;;;;1.92;1.00;;;;;;;16.68;45.01;97951.63;5034320;28;20046;-61
2023/11/03 04:01:19;;;;;;;8.48;1.45;;;;;;;16.67;46.43;97958.91;5034436;28;20116;-61
2023/11/03 04:03:44;;;;;;;5.85;0.90;;;;;;;16.65;45.07;97952.91;5033365;28;20593;-61
2023/11/03 04:06:11;;;;;;;3.20;0.80;;;;;;;16.65;45.80;97962.91;5036251;28;20033;-61
2023/11/03 04:08:37;;;;;;;9.10;1.10;;;;;;;16.65;45.99;97963.72;5037177;28;20425;-61
2023/11/03 04:11:03;;;;;;;6.57;1.17;;;;;;;16.66;45.60;97964.56;5037872;28;20501;-66
2023/11/03 04:13:29;;;;;;;2.13;0.80;;;;;;;16.67;45.88;97961.59;5038292;28;20037;-61
2023/11/03 04:15:54;;;;;;;6.05;0.82;;;;;;;16.66;46.18;97973.50;5025509;28;20037;-60
2023/11/03 04:18:21;;;;;;;6.93;0.60;;;;;;;16.65;45.14;97982.66;5017349;28;20037;-61
2023/11/03 04:20:47;;;;;;;5.70;0.98;;;;;;;16.60;45.55;97979.00;5035280;28;20056;-61
2023/11/03 04:23:13;;;;;;;3.13;0.90;;;;;;;16.60;45.69;97981.72;5033466;28;20505;-61
2023/11/03 04:25:39;;;;;;;3.08;0.80;;;;;;;16.53;46.28;97976.44;5033695;28;20446;-61
2023/11/03 04:28:07;;;;;;;7.18;1.30;;;;;;;16.45;46.64;97967.84;5034816;28;20163;-61
2023/11/03 04:30:36;;;;;;;3.85;0.63;;;;;;;16.47;46.96;97977.34;5033715;28;20080;-61
2023/11/03 04:33:02;;;;;;;8.20;1.25;;;;;;;16.46;45.80;97981.13;5033456;28;20425;-60
2023/11/03 04:35:28;;;;;;;5.63;0.95;;;;;;;16.44;46.23;97988.66;5033465;28;20044;-61
2023/11/03 04:37:54;;;;;;;4.05;1.10;;;;;;;16.42;46.22;97984.50;5034605;28;20037;-61
2023/11/03 04:40:20;;;;;;;0.85;0.65;;;;;;;16.39;46.27;97985.81;5032754;28;20034;-61
2023/11/03 04:42:50;;;;;;;2.78;0.98;;;;;;;16.38;46.09;97984.19;5033437;28;20037;-62
2023/11/03 04:45:16;;;;;;;8.10;0.57;;;;;;;16.39;45.77;97991.22;5017379;28;20175;-61
2023/11/03 04:47:42;;;;;;;8.23;0.85;;;;;;;16.40;46.69;97992.88;5034459;28;20041;-61
2023/11/03 04:50:10;;;;;;;1.80;0.70;;;;;;;16.39;46.86;97991.22;5016589;28;20041;-61
2023/11/03 04:52:36;;;;;;;2.72;0.50;;;;;;;16.39;46.80;97991.22;5034263;28;20140;-61
2023/11/03 04:55:03;;;;;;;6.05;0.93;;;;;;;16.34;46.70;97977.59;5033075;28;20108;-61
2023/11/03 04:57:28;;;;;;;3.70;0.52;;;;;;;16.40;46.08;97990.16;5032012;28;20064;-61
2023/11/03 04:59:54;;;;;;;5.03;0.80;;;;;;;16.41;46.45;97989.13;5032920;28;20057;-61
2023/11/03 05:02:20;;;;;;;2.78;0.82;;;;;;;16.38;45.92;97995.00;5032896;28;20026;-62
2023/11/03 05:04:45;;;;;;;5.57;1.25;;;;;;;16.41;46.03;97993.69;5034118;28;20030;-61
2023/11/03 05:07:11;;;;;;;1.45;0.80;;;;;;;16.42;46.31;97993.44;5033637;28;20563;-61
2023/11/03 05:09:37;;;;;;;4.82;0.93;;;;;;;16.44;46.28;97988.66;5033815;28;20489;-61
2023/11/03 05:12:03;;;;;;;4.22;0.63;;;;;;;16.46;46.54;97991.94;5032978;28;20075;-61
2023/11/03 05:14:29;;;;;;;4.18;0.55;;;;;;;16.44;45.67;97974.31;5033674;28;20116;-61
2023/11/03 05:16:55;;;;;;;3.85;0.75;;;;;;;16.42;45.90;97974.53;5032310;28;20536;-61
2023/11/03 05:19:21;;;;;;;0.88;0.40;;;;;;;16.42;46.36;97982.63;5016189;28;20030;-61
2023/11/03 05:21:46;;;;;;;3.60;0.57;;;;;;;16.44;46.23;97967.03;5016122;28;20029;-61
2023/11/03 05:24:11;;;;;;;6.80;0.63;;;;;;;16.44;46.21;97974.31;5033813;28;20065;-61
2023/11/03 05:26:37;;;;;;;1.45;0.80;;;;;;;16.42;46.31;97971.81;5033495;28;20405;-61
2023/11/03 05:29:03;;;;;;;5.43;0.93;;;;;;;16.41;45.99;97981.00;5033689;28;20037;-61
2023/11/03 05:31:29;;;;;;;3.00;0.40;;;;;;;16.36;45.75;97975.47;5033490;28;20116;-61
2023/11/03 05:33:54;;;;;;;3.92;0.70;;;;;;;16.42;46.26;97981.81;5032400;28;20457;-61
2023/11/03 05:36:19;;;;;;;5.97;1.10;;;;;;;16.41;45.59;97983.72;5032279;28;20037;-61
2023/11/03 05:38:46;;;;;;;1.70;0.45;;;;;;;16.40;45.73;97982.06;5015396;28;20029;-61
2023/11/03 05:41:13;;;;;;;1.33;0.60;;;;;;;16.40;46.66;97992.88;5031123;28;20486;-60
2023/11/03 05:43:38;;;;;;;3.75;1.55;;;;;;;16.41;46.45;97994.53;5015965;28;20029;-61
2023/11/03 05:46:04;;;;;;;6.18;0.73;;;;;;;16.42;46.40;98006.13;5032079;28;20091;-61
2023/11/03 05:48:29;;;;;;;1.50;0.50;;;;;;;16.38;46.44;98000.41;5033658;28;20109;-61
2023/11/03 05:50:56;;;;;;;5.88;1.00;;;;;;;16.36;46.33;98002.47;5015694;28;20033;-60
2023/11/03 05:53:21;;;;;;;1.58;0.60;;;;;;;16.34;46.40;98001.91;5032156;28;20382;-61
2023/11/03 05:55:47;;;;;;;0.55;0.20;;;;;;;16.33;46.50;98012.97;5015861;28;20033;-61
2023/11/03 05:58:12;;;;;;;1.10;0.75;;;;;;;16.33;45.80;98013.78;5033338;28;20033;-61
2023/11/03 06:00:37;;;;;;;1.77;0.52;;;;;;;16.31;45.43;98014.00;5031942;28;20117;-61
2023/11/03 06:03:03;;;;;;;2.90;0.43;;;;;;;16.31;46.31;98015.88;5033004;28;20413;-61
2023/11/03 06:05:28;;;;;;;2.92;0.43;;;;;;;16.31;46.82;98021.28;5031859;28;20057;-60
2023/11/03 06:07:54;;;;;;;3.38;0.60;;;;;;;16.31;45.93;98021.28;5032956;28;20037;-61
2023/11/03 06:10:21;;;;;;;4.82;0.57;;;;;;;16.32;45.81;98033.75;5033120;28;20026;-61
2023/11/03 06:12:46;;;;;;;3.20;0.50;;;;;;;16.32;46.96;98036.44;5031587;28;20045;-60
2023/11/03 06:15:13;;;;;;;2.83;1.02;;;;;;;16.32;45.51;98036.44;5032956;28;20033;-61
2023/11/03 06:17:39;;;;;;;1.20;0.50;;;;;;;16.33;46.42;98034.56;5032891;28;20068;-61
2023/11/03 06:20:06;;;;;;;8.50;0.65;;;;;;;16.35;46.27;98030.56;5031818;28;20164;-61
2023/11/03 06:22:31;;;;;;;4.57;0.75;;;;;;;16.36;45.90;98042.22;5031819;28;20029;-61
2023/11/03 06:24:58;;;;;;;1.55;0.40;;;;;;;16.40;45.94;98049.59;5032911;28;20060;-61
2023/11/03 06:27:24;;;;;;;2.53;0.38;;;;;;;16.43;45.68;98057.25;5015282;28;20112;-60
2023/11/03 06:29:50;;;;;;;6.05;0.60;;;;;;;16.42;45.73;98049.34;5033063;28;20447;-61
2023/11/03 06:32:15;;;;;;;5.95;0.80;;;;;;;16.44;46.33;98058.91;5032480;28;20041;-61
2023/11/03 06:34:40;;;;;;;3.85;0.40;;;;;;;16.42;46.52;98061.00;5031940;28;20109;-61
2023/11/03 06:37:08;;;;;;;0.95;0.52;;;;;;;16.45;46.00;98067.81;5032378;28;20049;-61
2023/11/03 06:39:33;;;;;;;3.05;0.45;;;;;;;16.45;45.69;98074.03;5035357;28;20071;-61
2023/11/03 06:41:59;;;;;;;3.13;0.50;;;;;;;16.44;45.86;98075.13;5035716;28;20025;-61
2023/11/03 06:44:24;;;;;;;5.10;0.50;;;;;;;16.44;45.36;98085.91;5035507;28;20025;-61
2023/11/03 06:46:49;;;;;;;2.83;0.98;;;;;;;16.43;46.30;98084.25;5018353;28;20048;-62
2023/11/03 06:49:15;;;;;;;6.15;1.13;;;;;;;16.49;45.22;98098.72;5035348;28;20029;-61
2023/11/03 06:51:46;;;;;;;1.52;0.80;;;;;;;16.55;46.08;98104.06;5035526;28;20108;-60
2023/11/03 06:54:11;;;;;;;2.65;1.15;;;;;;;16.57;46.52;98096.53;5035569;28;20017;-61
2023/11/03 06:56:37;;;;;;;1.80;1.30;;;;;;;16.57;46.63;98101.09;5036818;28;20163;-61
2023/11/03 06:59:03;;;;;;;6.82;0.65;;;;;;;16.62;45.98;98109.31;5035493;28;20033;-61
2023/11/03 07:01:28;;;;;;;5.00;0.90;;;;;;;16.65;45.74;98106.97;5036625;28;20481;-60
2023/11/03 07:03:54;;;;;;;2.28;0.60;;;;;;;16.71;46.02;98111.47;5035342;28;20061;-62
2023/11/03 07:06:20;;;;;;;2.35;0.45;;;;;;;16.76;44.76;98099.94;5018697;28;20018;-61
2023/11/03 07:08:47;;;;;;;1.60;0.52;;;;;;;16.81;46.42;98106.28;5035273;28;20077;-61
2023/11/03 07:11:12;;;;;;;2.55;0.88;;;;;;;16.83;46.04;98101.44;5034817;28;20060;-62
2023/11/03 07:13:38;;;;;;;5.60;0.77;;;;;;;16.87;45.36;98110.75;5034773;28;20023;-61
2023/11/03 07:16:04;;;;;;;2.33;0.82;;;;;;;16.89;44.65;98107.78;5034879;28;20048;-61
2023/11/03 07:18:30;;;;;;;1.45;0.63;;;;;;;16.92;45.15;98103.81;5018554;28;20039;-61
2023/11/03 07:20:56;;;;;;;2.97;0.40;;;;;;;16.92;44.91;98111.94;5036119;28;20099;-61
2023/11/03 07:23:21;;;;;;;5.03;0.63;;;;;;;16.92;45.11;98115.44;5018379;28;20395;-61
2023/11/03 07:25:50;;;;;;;10.15;1.27;;;;;;;16.93;46.14;98124.38;5036104;28;20028;-61
2023/11/03 07:28:16;;;;;;;1.50;0.60;;;;;;;16.93;44.57;98135.19;5036284;28;20045;-61
2023/11/03 07:30:41;;;;;;;5.07;0.70;;;;;;;16.92;45.09;98145.16;5034991;28;20034;-61
2023/11/03 07:33:07;;;;;;;5.82;0.80;;;;;;;16.89;45.89;98138.34;5035867;28;20463;-60
2023/11/03 07:35:32;;;;;;;2.50;0.57;;;;;;;16.86;46.18;98136.13;5034862;28;20026;-60
2023/11/03 07:37:58;;;;;;;4.75;1.08;;;;;;;16.87;45.82;98151.31;5035870;28;20033;-61
2023/11/03 07:40:23;;;;;;;2.97;0.63;;;;;;;16.89;45.86;98157.28;5036309;28;20029;-61
2023/11/03 07:42:49;;;;;;;1.13;0.50;;;;;;;16.92;45.09;98144.38;5034365;28;20040;-59
2023/11/03 07:45:16;;;;;;;3.78;0.63;;;;;;;16.94;45.29;98144.97;5034294;28;20033;-60
2023/11/03 07:47:41;;;;;;;2.58;0.90;;;;;;;16.94;46.11;98150.38;5034475;28;20037;-61
2023/11/03 07:50:07;;;;;;;4.15;0.30;;;;;;;16.99;46.10;98153.19;5035430;28;20044;-60
2023/11/03 07:52:33;;;;;;;3.10;0.75;;;;;;;17.03;45.33;98154.38;5035455;28;20025;-60
2023/11/03 07:54:59;;;;;;;4.05;0.68;;;;;;;17.09;46.10;98148.00;5034220;28;20034;-60
2023/11/03 07:57:25;;;;;;;1.75;0.77;;;;;;;17.13;45.59;98144.59;5017982;28;20053;-60
2023/11/03 07:59:51;;;;;;;2.95;0.60;;;;;;;17.16;45.66;98154.09;5034098;28;20057;-60
2023/11/03 08:02:16;;;;;;;2.83;0.50;;;;;;;17.21;44.60;98160.47;5034007;28;20029;-60
2023/11/03 08:04:42;;;;;;;7.40;0.75;;;;;;;17.28;44.88;98152.22;5035348;28;20033;-60
2023/11/03 08:07:08;;;;;;;11.63;2.03;;;;;;;17.31;45.01;98155.25;5035239;28;20397;-60
2023/11/03 08:09:33;;;;;;;3.83;1.50;;;;;;;17.32;45.34;98158.78;5035639;28;20044;-60
2023/11/03 08:11:59;;;;;;;10.20;0.90;;;;;;;17.38;45.86;98163.25;5035169;28;20156;-60
2023/11/03 08:14:24;;;;;;;7.32;0.75;;;;;;;17.46;45.75;98169.13;5033863;28;20036;-60
2023/11/03 08:16:50;;;;;;;2.97;0.80;;;;;;;17.47;45.55;98153.72;5035152;28;20033;-60
2023/11/03 08:19:15;;;;;;;4.80;1.15;;;;;;;17.52;44.25;98159.22;5035130;28;20033;-60
2023/11/03 08:21:43;;;;;;;3.47;0.80;;;;;;;17.55;45.68;98169.63;5035152;28;20540;-61
2023/11/03 08:24:10;;;;;;;4.55;0.80;;;;;;;17.61;44.62;98163.25;5033633;28;20049;-60
2023/11/03 08:26:36;;;;;;;2.80;1.55;;;;;;;17.64;45.34;98157.34;5033801;28;20036;-60
2023/11/03 08:29:03;;;;;;;2.08;0.40;;;;;;;17.68;45.04;98160.38;5034893;28;20029;-61
2023/11/03 08:31:29;;;;;;;5.72;1.15;;;;;;;17.72;44.88;98167.81;5033942;28;20053;-60
2023/11/03 08:33:54;;;;;;;5.60;1.00;;;;;;;17.77;44.35;98173.31;5017011;28;20103;-61
2023/11/03 08:36:20;;;;;;;7.38;0.98;;;;;;;17.80;45.43;98180.13;5034823;28;20045;-61
2023/11/03 08:38:45;;;;;;;8.48;0.93;;;;;;;17.91;44.70;98180.09;5034758;28;20033;-61
2023/11/03 08:41:11;;;;;;;8.02;1.27;;;;;;;18.03;43.78;98188.19;5034959;28;20026;-60
2023/11/03 08:43:37;;;;;;;2.60;0.40;;;;;;;18.15;45.20;98198.94;5034578;28;20025;-61
2023/11/03 08:46:03;;;;;;;7.07;1.05;;;;;;;18.37;44.47;98199.94;5033356;28;20497;-61
2023/11/03 08:48:29;;;;;;;4.00;0.90;;;;;;;18.50;44.33;98191.53;5033404;28;20026;-61
2023/11/03 08:50:54;;;;;;;3.92;0.50;;;;;;;18.64;43.99;98205.59;5033366;28;20044;-61
2023/11/03 08:53:23;;;;;;;3.10;0.63;;;;;;;18.70;44.11;98193.75;5033233;28;20087;-61
2023/11/03 08:55:50;;;;;;;3.35;1.00;;;;;;;18.64;43.30;98211.00;5033251;28;20052;-61
2023/11/03 08:58:15;;;;;;;11.88;1.20;;;;;;;18.63;44.47;98204.75;5034167;28;20044;-60
2023/11/03 09:00:44;;;;;;;8.85;1.10;;;;;;;18.74;44.23;98220.13;5033830;28;20033;-61
2023/11/03 09:03:10;;;;;;;7.88;1.00;;;;;;;19.06;43.98;98221.22;5033111;28;20049;-60
2023/11/03 09:05:35;;;;;;;7.88;0.95;;;;;;;19.43;42.74;98220.72;5017708;28;20044;-61
2023/11/03 09:08:01;;;;;;;1.08;0.68;;;;;;;19.83;42.43;98229.41;5034081;28;20033;-61
2023/11/03 09:10:28;;;;;;;8.48;1.08;;;;;;;19.92;42.30;98236.03;5034597;28;20029;-61
2023/11/03 09:12:54;;;;;;;4.97;0.93;;;;;;;20.25;42.26;98241.38;5036292;28;20072;-60
2023/11/03 09:15:19;;;;;;;7.13;0.80;;;;;;;20.79;41.75;98249.53;5032712;28;20057;-61
2023/11/03 09:17:45;;;;;;;9.38;1.00;;;;;;;21.29;41.45;98247.28;5032754;28;20053;-61
2023/11/03 09:20:12;;;;;;;5.30;1.80;;;;;;;21.70;40.98;98252.97;5032951;28;20034;-61
2023/11/03 09:22:37;;;;;;;2.88;0.60;;;;;;;22.12;40.79;98253.75;5033980;28;20112;-61
2023/11/03 09:25:03;;;;;;;7.30;0.80;;;;;;;22.35;40.04;98266.13;5032709;28;20056;-61
2023/11/03 09:27:29;;;;;;;2.03;0.70;;;;;;;22.65;39.73;98249.84;5033745;28;20417;-61
2023/11/03 09:29:54;;;;;;;5.90;1.50;;;;;;;22.80;39.22;98246.34;5032433;28;20033;-61
2023/11/03 09:32:19;;;;;;;2.30;0.80;;;;;;;23.06;39.50;98242.53;5032312;28;20060;-61
2023/11/03 09:34:49;;;;;;;4.32;1.00;;;;;;;23.45;39.10;98251.81;5032367;28;20512;-61
2023/11/03 09:37:15;;;;;;;3.40;0.85;;;;;;;23.69;38.47;98258.34;5032442;28;20519;-61
2023/11/03 09:39:42;;;;;;;6.03;0.95;;;;;;;24.04;38.26;98262.88;5015719;28;20033;-61
2023/11/03 09:42:10;;;;;;;3.75;1.48;;;;;;;24.23;38.51;98271.34;5015907;28;20041;-61
2023/11/03 09:44:37;;;;;;;4.38;0.80;;;;;;;23.78;39.15;98275.00;5032284;28;20042;-61
2023/11/03 09:47:04;;;;;;;4.00;0.85;;;;;;;23.32;38.91;98287.88;5032249;28;20034;-61
2023/11/03 09:49:30;;;;;;;4.80;0.90;;;;;;;22.92;38.75;98298.78;5032293;28;20033;-61
2023/11/03 09:52:07;;;;;;;6.07;1.73;;;;;;;22.61;38.96;98295.94;5015792;28;20112;-61
2023/11/03 09:54:35;;;;;;;10.07;2.03;;;;;;;22.40;39.78;98302.44;5033448;28;20040;-61
2023/11/03 09:57:02;;;;;;;4.95;1.10;;;;;;;22.13;40.34;98307.22;5032162;28;20026;-61
2023/11/03 09:59:30;;;;;;;4.28;1.25;;;;;;;21.82;39.58;98319.84;5032150;28;20400;-61
2023/11/03 10:01:55;;;;;;;7.38;1.33;;;;;;;21.66;40.42;98318.09;5015552;28;20025;-61
2023/11/03 10:04:21;;;;;;;2.45;0.80;;;;;;;21.38;40.30;98321.16;5033006;28;20061;-61
2023/11/03 10:06:49;;;;;;;8.85;1.42;;;;;;;21.06;40.47;98333.88;5032190;28;20072;-63
2023/11/03 10:09:16;;;;;;;6.18;1.83;;;;;;;20.78;40.61;98333.06;5032585;28;20104;-61
2023/11/03 10:11:43;;;;;;;9.45;1.00;;;;;;;20.58;40.63;98342.88;5031666;28;20033;-60
2023/11/03 10:14:08;;;;;;;5.30;2.45;;;;;;;20.42;41.33;98344.63;5032621;28;20037;-61
2023/11/03 10:16:35;;;;;;;9.40;2.83;;;;;;;20.35;40.74;98337.72;5033129;28;20075;-61
2023/11/03 10:19:02;;;;;;;2.17;1.00;;;;;;;20.19;41.21;98351.09;5015480;28;20034;-61
2023/11/03 10:21:28;;;;;;;7.00;1.40;;;;;;;20.06;41.26;98351.47;5032743;28;20041;-60
2023/11/03 10:23:55;;;;;;;7.53;1.48;;;;;;;20.01;41.57;98350.56;5015282;28;20505;-61
2023/11/03 10:26:20;;;;;;;7.30;0.85;;;;;;;19.94;41.33;98358.06;5031683;28;20504;-61
2023/11/03 10:28:46;;;;;;;3.38;0.88;;;;;;;19.92;41.41;98354.78;5031787;28;20084;-61
2023/11/03 10:31:11;;;;;;;5.55;1.50;;;;;;;19.79;41.69;98360.56;5031960;28;20029;-61
2023/11/03 10:33:38;;;;;;;3.45;0.95;;;;;;;19.71;41.61;98359.06;5031740;28;20504;-61
2023/11/03 10:36:08;;;;;;;6.05;1.13;;;;;;;19.62;41.66;98366.00;5031680;28;20432;-62
2023/11/03 10:38:33;;;;;;;4.93;1.65;;;;;;;19.50;41.93;98357.13;5015585;28;20026;-61
2023/11/03 10:41:00;;;;;;;7.05;1.08;;;;;;;19.40;42.23;98367.81;5014875;28;20040;-61
2023/11/03 10:43:27;;;;;;;8.52;1.00;;;;;;;19.32;42.34;98370.91;5031387;28;20041;-61
2023/11/03 10:45:59;;;;;;;5.32;0.90;;;;;;;19.24;42.42;98374.00;5032737;28;20053;-61
2023/11/03 10:48:24;;;;;;;10.50;1.42;;;;;;;19.14;42.58;98375.50;5031491;28;20030;-61
2023/11/03 10:51:03;;;;;;;4.43;1.00;;;;;;;19.05;42.03;98387.81;5031242;28;20029;-61
2023/11/03 10:53:58;;;;;;;5.72;0.90;;;;;;;18.94;42.56;98369.69;5014450;28;20065;-61
2023/11/03 10:56:24;;;;;;;5.95;1.33;;;;;;;18.89;42.02;98379.63;5032547;28;20026;-61
2023/11/03 10:58:50;;;;;;;7.50;1.83;;;;;;;18.79;42.61;98385.66;5032533;28;20377;-61
2023/11/03 11:01:34;;;;;;;5.57;1.10;;;;;;;18.78;42.65;98369.66;5014979;28;20034;-61
2023/11/03 11:04:07;;;;;;;8.80;0.90;;;;;;;18.75;42.34;98386.41;5032254;28;20592;-60
2023/11/03 11:06:43;;;;;;;9.63;1.27;;;;;;;18.63;42.64;98364.75;5031370;28;20049;-61
2023/11/03 11:09:20;;;;;;;5.55;0.80;;;;;;;18.60;42.42;98382.31;5031480;28;20408;-61
2023/11/03 11:11:46;;;;;;;5.55;1.00;;;;;;;18.60;42.48;98382.31;5031255;28;20036;-61
2023/11/03 11:14:25;;;;;;;7.45;1.10;;;;;;;18.56;42.00;98377.63;5031168;28;20045;-61
2023/11/03 11:16:58;;;;;;;6.35;0.85;;;;;;;18.55;42.45;98381.41;5030560;28;20029;-61
2023/11/03 11:19:41;;;;;;;9.95;1.33;;;;;;;18.55;42.94;98387.66;5032358;28;20037;-61
2023/11/03 11:22:10;;;;;;;7.20;1.10;;;;;;;18.55;42.70;98373.25;5031151;28;20516;-61
2023/11/03 11:24:38;;;;;;;16.25;1.83;;;;;;;18.58;42.30;98380.91;5033945;28;20033;-61
2023/11/03 11:27:20;;;;;;;6.47;1.00;;;;;;;18.64;42.48;98388.09;5034684;28;20033;-62
2023/11/03 11:29:50;;;;;;;3.75;0.80;;;;;;;18.67;42.80;98387.63;5034567;28;20087;-60
2023/11/03 11:32:17;;;;;;;5.82;0.73;;;;;;;18.72;42.67;98379.56;5034792;28;20087;-61